Time;durP1;ratioP1;P1;durP2;ratioP2;P2;SDS_P1;SDS_P2;PMS_P1;PMS_P2;Temp;Humidity;BMP_temperature;BMP_pressure;BME280_temperature;BME280_humidity;BME280_pressure;Samples;Min_cycle;Max_cycle;Signal;HPM_P1;HPM_P2
2020/12/07 00:00:14;;;;;;;204.90;59.13;;;5.30;99.90;;;;;;5017420;28;20196;-87
2020/12/07 00:02:42;;;;;;;231.67;57.90;;;5.20;99.90;;;;;;5034924;28;20176;-87
2020/12/07 00:05:08;;;;;;;151.70;54.27;;;5.10;99.90;;;;;;5033167;28;20168;-87
2020/12/07 00:07:34;;;;;;;204.17;53.13;;;5.10;99.90;;;;;;5006822;28;20185;-87
2020/12/07 00:10:02;;;;;;;175.73;54.80;;;4.90;99.90;;;;;;5013511;28;20186;-87
2020/12/07 00:12:30;;;;;;;149.67;51.10;;;4.90;99.90;;;;;;5030546;28;20176;-86
2020/12/07 00:14:56;;;;;;;131.97;50.03;;;4.80;99.90;;;;;;5029856;28;20318;-87
2020/12/07 00:17:25;;;;;;;160.13;48.27;;;4.50;99.90;;;;;;5033514;28;20605;-86
2020/12/07 00:19:52;;;;;;;144.30;47.00;;;4.40;99.90;;;;;;5033486;28;20630;-87
2020/12/07 00:22:25;;;;;;;178.53;48.93;;;4.50;99.90;;;;;;5012554;28;20214;-87
2020/12/07 00:24:52;;;;;;;132.70;46.53;;;4.60;99.90;;;;;;4997927;28;20547;-86
2020/12/07 00:27:44;;;;;;;113.57;45.57;;;4.60;99.90;;;;;;4981767;28;20184;-86
2020/12/07 00:30:10;;;;;;;136.63;47.50;;;4.60;99.90;;;;;;5014013;28;20169;-86
2020/12/07 00:32:35;;;;;;;150.63;46.73;;;4.60;99.90;;;;;;5008732;28;20185;-87
2020/12/07 00:35:01;;;;;;;155.67;48.77;;;4.60;99.90;;;;;;5016732;28;20314;-87
2020/12/07 00:37:27;;;;;;;142.63;48.30;;;4.70;99.90;;;;;;5023909;28;20676;-87
2020/12/07 00:39:53;;;;;;;143.17;46.87;;;4.80;99.90;;;;;;5032821;28;20178;-88
2020/12/07 00:42:21;;;;;;;125.57;47.20;;;4.80;99.90;;;;;;5032602;28;20186;-87
2020/12/07 00:44:47;;;;;;;149.57;45.53;;;4.90;99.90;;;;;;5032876;28;20168;-88
2020/12/07 00:47:12;;;;;;;119.30;44.47;;;4.80;99.90;;;;;;5033147;28;20581;-87
2020/12/07 00:49:39;;;;;;;118.87;44.40;;;4.70;99.90;;;;;;5032875;28;20637;-88
2020/12/07 00:52:06;;;;;;;124.03;43.47;;;4.70;99.90;;;;;;5026851;28;20700;-87
2020/12/07 00:54:32;;;;;;;116.90;44.27;;;4.60;99.90;;;;;;5032797;28;20168;-88
2020/12/07 00:56:59;;;;;;;114.47;45.10;;;4.60;99.90;;;;;;5032126;28;20199;-88
2020/12/07 00:59:29;;;;;;;103.37;44.30;;;4.70;99.90;;;;;;5032471;28;20267;-88
2020/12/07 01:01:56;;;;;;;134.63;44.13;;;4.70;99.90;;;;;;5033558;28;20258;-88
2020/12/07 01:04:23;;;;;;;134.43;42.33;;;4.70;99.90;;;;;;5031898;28;20234;-88
2020/12/07 01:06:49;;;;;;;108.47;42.07;;;4.70;99.90;;;;;;5034309;28;20203;-86
2020/12/07 01:09:16;;;;;;;110.70;40.83;;;4.60;99.90;;;;;;5019998;28;20215;-88
2020/12/07 01:11:42;;;;;;;117.13;40.77;;;4.50;99.90;;;;;;5036533;28;20175;-88
2020/12/07 01:14:17;;;;;;;118.73;40.87;;;4.50;99.90;;;;;;5036028;28;20194;-88
2020/12/07 01:16:44;;;;;;;145.50;43.33;;;4.60;99.90;;;;;;5036104;28;20198;-87
2020/12/07 01:19:09;;;;;;;107.13;40.63;;;4.50;99.90;;;;;;5027932;28;20176;-88
2020/12/07 01:21:35;;;;;;;98.23;43.27;;;4.60;99.90;;;;;;5035128;28;20541;-88
2020/12/07 01:24:01;;;;;;;101.10;42.30;;;4.60;99.90;;;;;;5050234;28;20236;-89
2020/12/07 01:26:27;;;;;;;96.20;42.40;;;4.60;99.90;;;;;;5023750;28;20217;-89
2020/12/07 01:28:53;;;;;;;95.17;41.23;;;4.50;99.90;;;;;;5035682;28;20179;-88
2020/12/07 01:31:19;;;;;;;99.07;43.00;;;4.30;99.90;;;;;;5035963;28;20178;-87
2020/12/07 01:33:45;;;;;;;104.33;44.03;;;4.00;99.90;;;;;;5021215;28;20188;-89
2020/12/07 01:36:12;;;;;;;131.57;43.37;;;4.10;99.90;;;;;;5032479;28;20172;-89
2020/12/07 01:38:37;;;;;;;127.10;44.70;;;4.20;99.90;;;;;;5049286;28;20208;-89
2020/12/07 01:41:05;;;;;;;124.43;41.93;;;4.20;99.90;;;;;;5019580;28;20182;-88
2020/12/07 01:43:31;;;;;;;105.50;43.27;;;4.30;99.90;;;;;;5035737;28;20560;-88
2020/12/07 01:45:57;;;;;;;107.27;45.63;;;4.20;99.90;;;;;;5036183;28;20180;-90
2020/12/07 01:48:25;;;;;;;115.37;45.57;;;4.10;99.90;;;;;;5053234;28;20210;-89
2020/12/07 01:50:55;;;;;;;137.87;44.70;;;4.20;99.90;;;;;;5049430;28;20179;-88
2020/12/07 01:53:22;;;;;;;133.30;46.83;;;4.30;99.90;;;;;;5026009;28;20199;-88
2020/12/07 01:55:49;;;;;;;164.87;45.17;;;4.20;99.90;;;;;;5018594;28;20191;-89
2020/12/07 01:58:15;;;;;;;153.73;46.57;;;4.30;99.90;;;;;;5018871;28;20208;-88
2020/12/07 02:00:41;;;;;;;139.03;48.57;;;4.50;99.90;;;;;;5034343;28;20183;-89
2020/12/07 02:03:09;;;;;;;120.53;45.13;;;4.60;99.90;;;;;;5024259;28;20177;-87
2020/12/07 02:05:37;;;;;;;122.63;47.53;;;4.70;99.90;;;;;;5035070;28;20184;-88
2020/12/07 02:08:29;;;;;;;138.87;46.00;;;4.80;99.90;;;;;;5031960;28;20203;-86
2020/12/07 02:10:57;;;;;;;114.70;45.13;;;4.80;99.90;;;;;;5040041;28;20215;-87
2020/12/07 02:13:23;;;;;;;161.97;49.77;;;4.90;99.90;;;;;;5003159;28;20172;-88
2020/12/07 02:15:49;;;;;;;176.90;53.37;;;4.90;99.90;;;;;;5018605;28;20652;-88
2020/12/07 02:18:15;;;;;;;203.43;53.73;;;5.10;99.90;;;;;;5035870;28;20334;-87
2020/12/07 02:20:46;;;;;;;214.83;53.37;;;5.10;99.90;;;;;;5018413;28;20233;-88
2020/12/07 02:23:12;;;;;;;217.60;53.53;;;5.00;99.90;;;;;;5035049;28;20178;-89
2020/12/07 02:25:38;;;;;;;163.33;53.33;;;4.90;99.90;;;;;;5017379;28;20270;-86
2020/12/07 02:28:03;;;;;;;154.97;54.37;;;4.70;99.90;;;;;;5026360;28;20660;-87
2020/12/07 02:30:29;;;;;;;148.83;52.73;;;4.40;99.90;;;;;;5054460;28;20179;-87
2020/12/07 02:32:55;;;;;;;241.03;54.93;;;4.40;99.90;;;;;;5021915;28;20186;-87
2020/12/07 02:35:20;;;;;;;154.70;50.17;;;4.50;99.90;;;;;;5018440;28;20176;-87
2020/12/07 02:37:47;;;;;;;141.37;50.07;;;4.40;99.90;;;;;;5018089;28;20200;-87
2020/12/07 02:40:14;;;;;;;136.43;50.40;;;4.40;99.90;;;;;;5034655;28;20172;-87
2020/12/07 02:42:41;;;;;;;162.03;54.40;;;4.40;99.90;;;;;;5023907;28;20180;-87
2020/12/07 02:45:13;;;;;;;140.10;51.57;;;4.30;99.90;;;;;;5015099;28;20606;-88
2020/12/07 02:47:39;;;;;;;132.83;50.73;;;4.20;99.90;;;;;;5035789;28;20160;-88
2020/12/07 02:50:06;;;;;;;138.87;49.40;;;4.20;99.90;;;;;;5034067;28;20178;-87
2020/12/07 02:52:32;;;;;;;152.60;52.93;;;4.20;99.90;;;;;;5034430;28;20177;-88
2020/12/07 02:55:06;;;;;;;131.83;49.40;;;4.20;99.90;;;;;;5035310;28;20176;-87
2020/12/07 02:57:34;;;;;;;133.63;48.10;;;4.30;99.90;;;;;;5029278;28;20319;-88
2020/12/07 03:00:00;;;;;;;149.67;49.87;;;4.30;99.90;;;;;;5014495;28;20187;-87
2020/12/07 03:02:25;;;;;;;136.43;50.60;;;4.40;99.90;;;;;;5015499;28;20184;-87
2020/12/07 03:04:51;;;;;;;139.87;51.47;;;4.40;99.90;;;;;;5025872;28;20200;-88
2020/12/07 03:07:17;;;;;;;136.83;52.03;;;4.40;99.90;;;;;;5017657;28;20202;-88
2020/12/07 03:09:45;;;;;;;164.03;52.07;;;4.30;99.90;;;;;;5017653;28;20172;-87
2020/12/07 03:12:11;;;;;;;131.87;50.37;;;4.20;99.90;;;;;;5033879;28;20169;-87
2020/12/07 03:14:36;;;;;;;134.97;53.03;;;3.80;99.90;;;;;;5014083;28;20185;-88
2020/12/07 03:17:03;;;;;;;153.40;52.47;;;3.80;99.90;;;;;;5017442;28;20262;-88
2020/12/07 03:19:29;;;;;;;168.70;54.27;;;3.90;99.90;;;;;;5033412;28;20172;-88
2020/12/07 03:21:55;;;;;;;144.97;50.10;;;4.00;99.90;;;;;;5034027;28;20179;-88
2020/12/07 03:24:20;;;;;;;147.07;51.60;;;4.00;99.90;;;;;;5000650;28;20206;-87
2020/12/07 03:26:46;;;;;;;131.20;47.67;;;4.00;99.90;;;;;;5017257;28;20561;-87
2020/12/07 03:29:12;;;;;;;125.77;49.97;;;4.00;99.90;;;;;;5032834;28;20168;-87
2020/12/07 03:31:39;;;;;;;139.07;49.07;;;4.10;99.90;;;;;;5000997;28;20172;-88
2020/12/07 03:34:06;;;;;;;138.63;47.93;;;4.00;99.90;;;;;;5017289;28;20187;-87
2020/12/07 03:36:36;;;;;;;119.97;46.13;;;3.90;99.90;;;;;;5033490;28;20228;-87
2020/12/07 03:39:03;;;;;;;117.67;46.60;;;3.70;99.90;;;;;;5033565;28;20190;-88
2020/12/07 03:41:29;;;;;;;152.77;50.13;;;3.60;99.90;;;;;;5033833;28;20536;-88
2020/12/07 03:43:54;;;;;;;143.27;49.17;;;3.50;99.90;;;;;;5017129;28;20176;-87
2020/12/07 03:46:20;;;;;;;133.40;49.33;;;3.70;99.90;;;;;;5017168;28;20176;-87
2020/12/07 03:48:48;;;;;;;123.03;48.93;;;3.90;99.90;;;;;;5032857;28;20176;-87
2020/12/07 03:51:13;;;;;;;150.27;49.57;;;4.00;99.90;;;;;;5033455;28;20513;-88
2020/12/07 03:53:39;;;;;;;148.57;50.80;;;4.00;99.90;;;;;;5034065;28;20178;-87
2020/12/07 03:56:07;;;;;;;123.67;47.03;;;3.90;99.90;;;;;;5017214;28;20175;-88
2020/12/07 03:58:33;;;;;;;123.53;47.90;;;3.80;99.90;;;;;;5016609;28;20250;-88
2020/12/07 04:00:59;;;;;;;132.10;48.50;;;3.70;99.90;;;;;;5017021;28;20211;-87
2020/12/07 04:03:26;;;;;;;128.90;50.17;;;3.90;99.90;;;;;;5033111;28;20522;-87
2020/12/07 04:08:36;;;;;;;127.97;49.90;;;3.70;99.90;;;;;;5034353;28;20580;-87
2020/12/07 04:11:02;;;;;;;130.13;46.93;;;3.80;99.90;;;;;;5034860;28;20176;-87
2020/12/07 04:13:31;;;;;;;129.30;50.63;;;3.80;99.90;;;;;;5032523;28;20184;-89
2020/12/07 04:15:57;;;;;;;132.90;48.80;;;3.90;99.90;;;;;;5048061;28;20259;-86
2020/12/07 04:18:22;;;;;;;124.83;48.57;;;4.00;99.90;;;;;;5020475;28;20290;-88
2020/12/07 04:20:50;;;;;;;119.37;47.80;;;4.20;99.90;;;;;;5000413;28;20597;-87
2020/12/07 04:23:16;;;;;;;125.23;49.00;;;4.20;99.90;;;;;;5032968;28;20534;-87
2020/12/07 04:25:41;;;;;;;127.30;47.87;;;4.20;99.90;;;;;;5000313;28;20179;-87
2020/12/07 04:28:07;;;;;;;116.83;44.23;;;4.10;99.90;;;;;;5000624;28;20602;-87
2020/12/07 04:30:37;;;;;;;103.73;43.37;;;4.10;99.90;;;;;;5032808;28;20207;-87
2020/12/07 04:33:02;;;;;;;120.37;44.90;;;4.20;99.90;;;;;;5022924;28;20211;-87
2020/12/07 04:35:28;;;;;;;116.07;45.37;;;4.20;99.90;;;;;;5018658;28;20203;-88
2020/12/07 04:37:54;;;;;;;119.30;45.53;;;4.20;99.90;;;;;;5032444;28;20710;-87
2020/12/07 04:40:20;;;;;;;111.70;42.77;;;4.30;99.90;;;;;;5001694;28;20194;-87
2020/12/07 04:42:46;;;;;;;109.63;44.47;;;4.30;99.90;;;;;;5032987;28;20630;-88
2020/12/07 04:45:12;;;;;;;100.40;41.07;;;4.10;99.90;;;;;;5020131;28;20180;-87
2020/12/07 04:47:39;;;;;;;102.17;42.27;;;4.10;99.90;;;;;;5012271;28;20185;-87
2020/12/07 04:50:06;;;;;;;107.37;43.37;;;4.20;99.90;;;;;;5025305;28;20184;-88
2020/12/07 04:52:35;;;;;;;110.47;45.27;;;4.20;99.90;;;;;;5036903;28;20562;-87
2020/12/07 04:55:03;;;;;;;109.33;43.87;;;4.20;99.90;;;;;;5036639;28;20191;-87
2020/12/07 04:57:30;;;;;;;108.93;44.83;;;4.20;99.90;;;;;;5027179;28;20208;-88
2020/12/07 04:59:57;;;;;;;106.43;42.67;;;4.30;99.90;;;;;;5033622;28;20238;-88
2020/12/07 05:02:25;;;;;;;107.77;42.13;;;4.20;99.90;;;;;;5036126;28;20176;-87
2020/12/07 05:04:55;;;;;;;101.37;42.67;;;4.10;99.90;;;;;;5036173;28;20176;-87
2020/12/07 05:07:21;;;;;;;103.70;42.10;;;4.10;99.90;;;;;;5031891;28;20181;-87
2020/12/07 05:09:47;;;;;;;100.80;42.87;;;3.90;99.90;;;;;;5033108;28;20218;-87
2020/12/07 05:12:27;;;;;;;106.70;43.67;;;3.90;99.90;;;;;;5028842;28;20669;-87
2020/12/07 05:14:56;;;;;;;99.17;43.00;;;3.90;99.90;;;;;;5036247;28;20258;-87
2020/12/07 05:17:22;;;;;;;98.57;41.00;;;3.90;99.90;;;;;;5019515;28;20196;-87
2020/12/07 05:19:49;;;;;;;97.10;42.47;;;4.00;99.90;;;;;;5036251;28;20191;-88
2020/12/07 05:22:18;;;;;;;102.33;44.20;;;4.10;99.90;;;;;;5036107;28;20199;-87
2020/12/07 05:24:48;;;;;;;103.77;42.73;;;4.20;99.90;;;;;;5036034;28;20175;-87
2020/12/07 05:27:17;;;;;;;108.90;43.23;;;4.30;99.90;;;;;;5028672;28;20234;-87
2020/12/07 05:30:19;;;;;;;103.83;44.63;;;4.30;99.90;;;;;;5016457;28;20165;-87
2020/12/07 05:32:38;;;;;;;107.90;45.33;;;4.40;99.90;;;;;;5030190;28;20641;-87
2020/12/07 05:35:06;;;;;;;114.40;45.33;;;4.30;99.90;;;;;;5036052;28;20172;-87
2020/12/07 05:37:37;;;;;;;111.37;45.93;;;4.10;99.90;;;;;;5039499;28;20195;-87
2020/12/07 05:40:07;;;;;;;103.57;44.47;;;4.10;99.90;;;;;;5039109;28;20200;-87
2020/12/07 05:42:33;;;;;;;104.53;45.07;;;4.00;99.90;;;;;;5033981;28;20173;-87
2020/12/07 05:45:01;;;;;;;114.83;46.23;;;3.80;99.90;;;;;;5017353;28;20195;-88
2020/12/07 05:47:27;;;;;;;106.00;45.20;;;3.80;99.90;;;;;;5024938;28;20595;-88
2020/12/07 05:49:55;;;;;;;113.67;45.43;;;3.80;99.90;;;;;;5019141;28;20219;-87
2020/12/07 05:52:43;;;;;;;112.73;46.10;;;3.80;99.90;;;;;;5034689;28;20176;-88
2020/12/07 05:55:10;;;;;;;99.50;44.10;;;3.70;99.90;;;;;;5029080;28;20179;-87
2020/12/07 05:57:55;;;;;;;111.43;45.60;;;3.40;99.90;;;;;;5036286;28;20708;-86
2020/12/07 06:00:22;;;;;;;95.93;43.47;;;3.40;99.90;;;;;;5034419;28;20234;-87
2020/12/07 06:02:53;;;;;;;99.10;44.80;;;3.40;99.90;;;;;;5032262;28;20176;-88
2020/12/07 06:05:23;;;;;;;111.43;43.30;;;3.40;99.90;;;;;;5033014;28;20511;-88
2020/12/07 06:08:07;;;;;;;127.77;45.43;;;3.50;99.90;;;;;;5019364;28;20180;-87
2020/12/07 06:10:51;;;;;;;104.63;42.73;;;3.50;99.90;;;;;;5036396;28;20168;-88
2020/12/07 06:13:28;;;;;;;103.90;42.23;;;3.50;99.90;;;;;;5031760;28;20164;-87
2020/12/07 06:15:58;;;;;;;98.93;41.63;;;3.50;99.90;;;;;;5018976;28;20183;-87
2020/12/07 06:18:31;;;;;;;91.53;42.33;;;3.40;99.90;;;;;;5034876;28;20280;-87
2020/12/07 06:21:06;;;;;;;116.83;45.40;;;3.40;99.90;;;;;;5018789;28;20184;-87
2020/12/07 06:23:37;;;;;;;94.30;41.93;;;3.40;99.90;;;;;;5034630;28;20187;-87
2020/12/07 06:26:06;;;;;;;95.20;42.73;;;3.50;99.90;;;;;;5035001;28;20621;-87
2020/12/07 06:28:38;;;;;;;98.37;42.23;;;3.60;99.90;;;;;;5035291;28;20684;-87
2020/12/07 06:31:11;;;;;;;107.67;41.80;;;3.60;99.90;;;;;;5035756;28;20157;-87
2020/12/07 06:33:42;;;;;;;97.43;41.83;;;3.60;99.90;;;;;;5036958;28;20204;-87
2020/12/07 06:36:35;;;;;;;99.20;41.50;;;3.70;99.90;;;;;;5040933;28;20191;-88
2020/12/07 06:39:08;;;;;;;89.97;41.70;;;3.60;99.90;;;;;;5049110;28;20188;-89
2020/12/07 06:41:38;;;;;;;102.33;38.70;;;3.40;99.90;;;;;;5054304;28;20190;-86
2020/12/07 06:44:12;;;;;;;95.80;39.77;;;3.40;99.90;;;;;;5052883;28;20239;-87
2020/12/07 06:46:58;;;;;;;103.53;38.47;;;3.30;99.90;;;;;;5039138;28;20218;-88
2020/12/07 06:50:00;;;;;;;86.90;38.00;;;3.30;99.90;;;;;;5055869;28;20179;-85
2020/12/07 06:52:26;;;;;;;95.67;40.93;;;3.30;99.90;;;;;;5043116;28;20180;-87
2020/12/07 06:55:12;;;;;;;99.97;41.40;;;3.40;99.90;;;;;;5013037;28;20184;-87
2020/12/07 06:57:42;;;;;;;98.70;39.10;;;3.50;99.90;;;;;;5020055;28;20676;-88
2020/12/07 07:00:11;;;;;;;101.73;39.20;;;3.50;99.90;;;;;;5038145;28;20192;-87
2020/12/07 07:02:48;;;;;;;102.13;40.47;;;3.40;99.90;;;;;;5037461;28;20173;-87
2020/12/07 07:05:18;;;;;;;106.60;39.40;;;3.40;99.90;;;;;;5036676;28;20250;-88
2020/12/07 07:07:44;;;;;;;86.13;38.87;;;3.40;99.90;;;;;;5035533;28;20237;-88
2020/12/07 07:10:12;;;;;;;87.77;40.97;;;3.40;99.90;;;;;;5035376;28;20172;-89
2020/12/07 07:12:39;;;;;;;94.20;39.87;;;3.40;99.90;;;;;;5029015;28;20181;-88
2020/12/07 07:15:06;;;;;;;85.07;40.23;;;3.40;99.90;;;;;;5015133;28;20215;-87
2020/12/07 07:17:38;;;;;;;99.40;39.97;;;3.40;99.90;;;;;;5015965;28;20197;-87
2020/12/07 07:20:09;;;;;;;107.17;44.73;;;3.50;99.90;;;;;;5031522;28;20267;-88
2020/12/07 07:22:37;;;;;;;102.70;41.30;;;3.50;99.90;;;;;;5034415;28;20164;-89
2020/12/07 07:30:24;;;;;;;100.33;44.07;;;3.60;99.90;;;;;;5016190;28;20211;-87
2020/12/07 07:32:52;;;;;;;97.40;40.77;;;3.70;99.90;;;;;;5020130;28;20197;-87
2020/12/07 07:35:22;;;;;;;107.60;41.90;;;3.80;99.90;;;;;;5034632;28;20514;-88
2020/12/07 07:37:48;;;;;;;109.67;42.83;;;3.70;99.90;;;;;;5032195;28;20239;-88
2020/12/07 07:40:18;;;;;;;101.73;42.23;;;3.70;99.90;;;;;;5001019;28;20176;-87
2020/12/07 07:43:02;;;;;;;108.43;41.00;;;3.70;99.90;;;;;;5034347;28;20176;-88
2020/12/07 07:45:35;;;;;;;141.60;43.30;;;3.70;99.90;;;;;;5034405;28;20183;-87
2020/12/07 07:48:19;;;;;;;129.90;43.27;;;3.70;99.90;;;;;;5035232;28;20226;-88
2020/12/07 08:15:51;;;;;;;108.50;43.80;;;3.70;99.90;;;;;;5013199;28;20164;-88
2020/12/07 08:18:29;;;;;;;118.53;44.87;;;3.80;99.90;;;;;;5012579;28;20210;-88
2020/12/07 08:20:59;;;;;;;114.03;43.27;;;4.00;99.90;;;;;;5020851;28;20191;-88
2020/12/07 08:23:30;;;;;;;109.07;44.03;;;3.90;99.90;;;;;;4992761;28;20176;-89
2020/12/07 08:25:57;;;;;;;108.57;43.90;;;3.90;99.90;;;;;;5033760;28;20200;-89
2020/12/07 08:28:31;;;;;;;108.27;44.73;;;3.90;99.90;;;;;;5033344;28;20176;-88
2020/12/07 08:31:04;;;;;;;104.57;42.67;;;3.90;99.90;;;;;;5025056;28;20172;-88
2020/12/07 08:33:32;;;;;;;106.37;43.20;;;4.00;99.90;;;;;;5013204;28;20181;-88
2020/12/07 08:35:59;;;;;;;107.70;44.97;;;4.10;99.90;;;;;;5022157;28;20619;-87
2020/12/07 08:38:29;;;;;;;102.27;43.03;;;3.80;99.90;;;;;;5016762;28;20203;-88
2020/12/07 08:41:05;;;;;;;96.27;40.50;;;3.80;99.90;;;;;;5034201;28;20172;-87
2020/12/07 08:43:31;;;;;;;97.00;41.67;;;3.80;99.90;;;;;;5033912;28;20231;-88
2020/12/07 08:46:00;;;;;;;107.70;42.87;;;3.70;99.90;;;;;;5016839;28;20271;-88
2020/12/07 08:48:25;;;;;;;111.67;42.80;;;3.60;99.90;;;;;;5046539;28;20257;-88
2020/12/07 08:50:57;;;;;;;114.90;43.80;;;3.60;99.90;;;;;;5016850;28;20243;-89
2020/12/07 08:53:23;;;;;;;104.73;42.03;;;3.60;99.90;;;;;;5033128;28;20169;-89
2020/12/07 08:55:49;;;;;;;105.53;42.67;;;3.60;99.90;;;;;;5033168;28;20708;-89
2020/12/07 08:58:19;;;;;;;108.27;43.33;;;3.60;99.90;;;;;;5035335;28;20538;-88
2020/12/07 09:00:48;;;;;;;108.13;42.27;;;3.70;99.90;;;;;;5020373;28;20342;-88
2020/12/07 09:03:14;;;;;;;119.30;43.23;;;3.70;99.90;;;;;;5049879;28;20175;-87
2020/12/07 09:05:40;;;;;;;121.93;46.57;;;3.80;99.90;;;;;;5036897;28;20173;-89
2020/12/07 09:08:07;;;;;;;108.40;43.70;;;3.80;99.90;;;;;;5039546;28;20181;-88
2020/12/07 09:10:36;;;;;;;111.83;46.03;;;3.80;99.90;;;;;;5028924;28;20172;-88
2020/12/07 09:13:03;;;;;;;107.73;45.70;;;3.70;99.90;;;;;;5033017;28;20200;-87
2020/12/07 09:15:30;;;;;;;111.83;44.57;;;3.70;99.90;;;;;;5033001;28;20184;-89
2020/12/07 09:17:56;;;;;;;110.93;47.37;;;3.70;99.90;;;;;;5034735;28;20269;-89
2020/12/07 09:20:22;;;;;;;114.13;45.80;;;3.70;99.90;;;;;;5052990;28;20176;-89
2020/12/07 09:22:47;;;;;;;113.03;45.43;;;3.80;99.90;;;;;;5051297;28;20206;-88
2020/12/07 09:25:13;;;;;;;117.90;48.23;;;3.90;99.90;;;;;;5043531;28;20275;-88
2020/12/07 09:27:39;;;;;;;114.17;45.83;;;3.90;99.90;;;;;;5040993;28;20183;-89
2020/12/07 09:30:06;;;;;;;112.13;44.97;;;4.00;99.90;;;;;;5040307;28;20226;-89
2020/12/07 09:32:34;;;;;;;124.30;46.30;;;4.00;99.90;;;;;;5040678;28;20172;-88
2020/12/07 09:35:01;;;;;;;107.60;46.70;;;4.10;99.90;;;;;;5026858;28;20188;-88
2020/12/07 09:37:26;;;;;;;121.13;51.57;;;4.20;99.90;;;;;;5043385;28;20263;-88
2020/12/07 09:39:52;;;;;;;124.30;50.23;;;4.10;99.90;;;;;;5026480;28;20207;-88
2020/12/07 09:42:19;;;;;;;138.40;52.13;;;4.10;99.90;;;;;;5044236;28;20259;-88
2020/12/07 09:44:45;;;;;;;120.07;50.70;;;4.20;99.90;;;;;;5021667;28;20192;-88
2020/12/07 09:47:11;;;;;;;126.77;48.47;;;4.20;99.90;;;;;;5020791;28;20208;-88
2020/12/07 09:49:36;;;;;;;126.47;49.90;;;4.30;99.90;;;;;;5021948;28;20630;-87
2020/12/07 09:52:02;;;;;;;123.40;52.10;;;4.30;99.90;;;;;;5034973;28;20172;-89
2020/12/07 09:54:28;;;;;;;107.30;45.77;;;4.30;99.90;;;;;;5044075;28;20175;-88
2020/12/07 09:56:55;;;;;;;102.17;47.07;;;4.30;99.90;;;;;;5043904;28;20196;-87
2020/12/07 09:59:21;;;;;;;123.43;49.10;;;4.20;99.90;;;;;;5025485;28;20192;-87
2020/12/07 10:01:48;;;;;;;114.90;48.93;;;4.20;99.90;;;;;;5021867;28;20179;-87
2020/12/07 10:04:14;;;;;;;110.40;47.03;;;4.10;99.90;;;;;;5036351;28;20207;-87
2020/12/07 10:06:40;;;;;;;120.20;48.67;;;4.00;99.90;;;;;;5037004;28;20183;-88
2020/12/07 10:09:05;;;;;;;122.67;48.50;;;4.00;99.90;;;;;;5020946;28;20183;-88
2020/12/07 10:11:31;;;;;;;111.87;48.53;;;4.10;99.90;;;;;;5004773;28;20176;-88
2020/12/07 10:13:57;;;;;;;124.27;50.33;;;4.20;99.90;;;;;;5035532;28;20270;-87
2020/12/07 10:16:22;;;;;;;114.10;49.40;;;4.10;99.90;;;;;;5018745;28;20187;-87
2020/12/07 10:18:48;;;;;;;115.73;49.53;;;4.10;99.90;;;;;;5035608;28;20188;-87
2020/12/07 10:21:13;;;;;;;105.83;48.13;;;4.20;99.90;;;;;;5036934;28;20573;-88
2020/12/07 10:23:42;;;;;;;110.73;49.30;;;4.20;99.90;;;;;;5018911;28;20182;-88
2020/12/07 10:26:08;;;;;;;112.20;49.93;;;4.10;99.90;;;;;;5019108;28;20176;-87
2020/12/07 10:28:33;;;;;;;112.10;49.23;;;4.10;99.90;;;;;;5034777;28;20186;-86
2020/12/07 10:30:59;;;;;;;115.40;49.17;;;4.10;99.90;;;;;;5018042;28;20176;-88
2020/12/07 10:33:24;;;;;;;116.10;50.50;;;4.20;99.90;;;;;;5034714;28;20179;-87
2020/12/07 10:35:50;;;;;;;111.87;51.03;;;4.30;99.90;;;;;;5018254;28;20207;-87
2020/12/07 10:38:16;;;;;;;108.17;51.00;;;4.40;99.90;;;;;;5017839;28;20196;-86
2020/12/07 10:40:41;;;;;;;104.67;48.37;;;4.40;99.90;;;;;;5034344;28;20172;-86
2020/12/07 10:43:07;;;;;;;121.13;50.80;;;4.50;99.90;;;;;;5017940;28;20633;-86
2020/12/07 10:45:35;;;;;;;104.70;48.20;;;4.50;99.90;;;;;;5017539;28;20172;-87
2020/12/07 10:48:01;;;;;;;104.07;48.20;;;4.50;99.90;;;;;;5017711;28;20191;-88
2020/12/07 10:50:26;;;;;;;111.07;49.87;;;4.50;99.90;;;;;;5003270;28;20172;-87
2020/12/07 10:52:52;;;;;;;95.43;48.23;;;4.60;99.90;;;;;;5033897;28;20180;-87
2020/12/07 10:55:18;;;;;;;106.70;47.83;;;4.70;99.90;;;;;;5037435;28;20172;-86
2020/12/07 10:57:45;;;;;;;102.83;48.80;;;4.70;99.90;;;;;;5037796;28;20192;-87
2020/12/07 11:00:13;;;;;;;117.53;48.20;;;4.70;99.90;;;;;;5035458;28;20180;-87
2020/12/07 11:02:41;;;;;;;102.73;48.70;;;4.70;99.90;;;;;;5018155;28;20641;-88
2020/12/07 11:05:07;;;;;;;112.20;51.40;;;4.60;99.90;;;;;;5034677;28;20637;-89
2020/12/07 11:07:33;;;;;;;136.30;54.07;;;4.40;99.90;;;;;;5018210;28;20172;-89
2020/12/07 11:09:59;;;;;;;124.27;54.80;;;4.30;99.90;;;;;;4998270;28;20645;-88
2020/12/07 11:12:25;;;;;;;126.00;52.93;;;4.10;99.90;;;;;;5017266;28;20184;-88
2020/12/07 11:14:51;;;;;;;140.50;57.57;;;4.00;99.90;;;;;;5023872;28;20265;-89
2020/12/07 11:17:17;;;;;;;130.60;58.50;;;4.00;99.90;;;;;;5014385;28;20204;-89
2020/12/07 11:19:44;;;;;;;138.17;58.27;;;4.00;99.90;;;;;;5015254;28;20176;-90
2020/12/07 11:22:13;;;;;;;142.87;58.87;;;3.80;99.90;;;;;;5016085;28;20263;-89
2020/12/07 11:24:39;;;;;;;142.50;59.33;;;3.50;99.90;;;;;;5006156;28;20177;-91
2020/12/07 11:27:06;;;;;;;141.10;59.63;;;3.50;99.90;;;;;;5020093;28;20176;-91
2020/12/07 11:29:33;;;;;;;167.87;63.50;;;3.70;99.90;;;;;;5016211;28;20172;-89
2020/12/07 11:31:59;;;;;;;155.37;61.83;;;3.70;99.90;;;;;;5040007;28;20172;-88
2020/12/07 11:34:25;;;;;;;149.30;62.07;;;3.90;99.90;;;;;;5035289;28;20217;-88
2020/12/07 11:36:51;;;;;;;138.40;57.83;;;4.00;99.90;;;;;;5018614;28;20314;-88
2020/12/07 11:44:34;;;;;;;120.87;51.63;;;4.10;99.90;;;;;;5056318;28;20198;-90
2020/12/07 11:47:03;;;;;;;107.93;48.87;;;4.20;99.90;;;;;;5026046;28;20638;-88
2020/12/07 11:49:29;;;;;;;103.33;47.57;;;4.30;99.90;;;;;;5002057;28;20176;-88
2020/12/07 11:51:56;;;;;;;101.03;46.83;;;4.30;99.90;;;;;;5016890;28;20664;-89
2020/12/07 11:54:21;;;;;;;105.87;46.53;;;4.40;99.90;;;;;;5033316;28;20194;-88
2020/12/07 11:56:47;;;;;;;96.10;45.53;;;4.60;99.90;;;;;;5016643;28;20176;-87
2020/12/07 11:59:13;;;;;;;108.50;47.17;;;4.70;99.90;;;;;;5033294;28;20179;-87
2020/12/07 12:01:40;;;;;;;101.70;45.83;;;4.70;99.90;;;;;;5016754;28;20183;-87
2020/12/07 12:04:05;;;;;;;96.30;45.23;;;4.80;99.90;;;;;;5014295;28;20723;-89
2020/12/07 12:06:34;;;;;;;101.17;45.13;;;4.90;99.90;;;;;;5021832;28;20259;-88
2020/12/07 12:09:01;;;;;;;96.47;46.43;;;4.90;99.90;;;;;;5043804;28;20176;-88
2020/12/07 12:11:45;;;;;;;101.20;45.90;;;4.80;99.90;;;;;;5016460;28;20233;-88
2020/12/07 12:14:11;;;;;;;98.63;46.03;;;4.90;99.90;;;;;;4997980;28;20195;-87
2020/12/07 12:16:40;;;;;;;100.47;45.67;;;4.90;99.90;;;;;;5015811;28;20258;-87
2020/12/07 12:19:12;;;;;;;103.23;45.27;;;5.00;99.90;;;;;;5033173;28;20225;-88
2020/12/07 12:21:38;;;;;;;92.43;44.70;;;5.10;99.90;;;;;;5033471;28;20168;-88
2020/12/07 12:24:05;;;;;;;105.10;46.00;;;5.20;99.90;;;;;;5032306;28;20184;-87
2020/12/07 12:26:35;;;;;;;99.63;45.53;;;5.30;99.90;;;;;;5000102;28;20223;-87
2020/12/07 12:29:01;;;;;;;102.43;43.70;;;5.40;99.90;;;;;;5034304;28;20184;-87
2020/12/07 12:31:30;;;;;;;103.63;46.27;;;5.30;99.90;;;;;;5016178;28;20259;-88
2020/12/07 12:33:58;;;;;;;100.77;45.00;;;5.30;99.90;;;;;;5016560;28;20176;-86
2020/12/07 12:36:28;;;;;;;94.87;44.53;;;5.30;99.90;;;;;;5033067;28;20194;-88
2020/12/07 12:38:56;;;;;;;92.37;44.20;;;5.30;99.90;;;;;;5032922;28;20558;-88
2020/12/07 12:41:22;;;;;;;87.30;42.20;;;5.20;99.90;;;;;;5016503;28;20199;-87
2020/12/07 12:43:48;;;;;;;92.10;41.80;;;5.20;99.90;;;;;;5016586;28;20187;-87
2020/12/07 12:46:14;;;;;;;94.63;43.07;;;5.30;99.90;;;;;;5016551;28;20176;-87
2020/12/07 12:48:40;;;;;;;77.33;37.27;;;5.40;99.90;;;;;;5033119;28;20184;-87
2020/12/07 12:51:08;;;;;;;73.67;36.93;;;5.40;99.90;;;;;;5033212;28;20187;-87
2020/12/07 12:53:34;;;;;;;75.17;36.03;;;5.30;99.90;;;;;;5033108;28;20172;-87
2020/12/07 12:56:00;;;;;;;77.10;38.67;;;5.10;99.90;;;;;;5033864;28;20251;-87
2020/12/07 12:58:26;;;;;;;80.90;39.87;;;5.00;99.90;;;;;;5035971;28;20227;-87
2020/12/07 13:00:52;;;;;;;85.23;38.97;;;5.10;99.90;;;;;;5037914;28;20271;-88
2020/12/07 13:03:18;;;;;;;81.60;38.17;;;5.00;99.90;;;;;;5041598;28;20176;-85
2020/12/07 13:05:44;;;;;;;77.97;37.37;;;5.00;99.90;;;;;;5025507;28;20172;-88
2020/12/07 13:08:10;;;;;;;78.63;37.03;;;4.90;99.90;;;;;;5020267;28;20184;-88
2020/12/07 13:10:38;;;;;;;80.30;40.10;;;5.00;99.90;;;;;;5036496;28;20168;-88